createdAt,value
2018-03-25T00:00:04.708Z,-0.70
2018-03-25T00:01:07.979Z,-0.70
2018-03-25T00:02:10.470Z,-0.70
2018-03-25T00:03:13.764Z,-0.70
2018-03-25T00:04:16.268Z,-0.70
2018-03-25T00:05:18.797Z,-0.70
2018-03-25T00:06:21.296Z,-0.70
2018-03-25T00:07:24.833Z,-0.70
2018-03-25T00:08:28.110Z,-0.70
2018-03-25T00:09:30.611Z,-0.70
2018-03-25T00:10:33.090Z,-0.70
2018-03-25T00:11:35.671Z,-0.70
2018-03-25T00:12:38.206Z,-0.80
2018-03-25T00:13:40.695Z,-0.70
2018-03-25T00:14:43.180Z,-0.70
2018-03-25T00:15:45.640Z,-0.70
2018-03-25T00:16:48.141Z,-0.70
2018-03-25T00:17:50.631Z,-0.70
2018-03-25T00:18:53.109Z,-0.80
2018-03-25T00:19:55.772Z,-0.80
2018-03-25T00:20:58.302Z,-0.80
2018-03-25T00:22:00.814Z,-0.80
2018-03-25T00:23:04.073Z,-0.80
2018-03-25T00:24:06.532Z,-0.80
2018-03-25T00:25:09.456Z,-0.80
2018-03-25T00:26:12.066Z,-0.80
2018-03-25T00:27:14.664Z,-0.80
2018-03-25T00:28:18.058Z,-0.80
2018-03-25T00:29:20.560Z,-0.80
2018-03-25T00:30:23.785Z,-0.90
2018-03-25T00:31:27.045Z,-0.90
2018-03-25T00:32:29.517Z,-0.90
2018-03-25T00:33:32.003Z,-0.90
2018-03-25T00:34:34.539Z,-0.90
2018-03-25T00:35:37.053Z,-0.90
2018-03-25T00:36:39.567Z,-0.90
2018-03-25T00:37:42.074Z,-0.90
2018-03-25T00:38:45.329Z,-0.90
2018-03-25T00:39:48.559Z,-0.90
2018-03-25T00:40:51.798Z,-0.80
2018-03-25T00:41:55.070Z,-0.80
2018-03-25T00:42:57.550Z,-0.80
2018-03-25T00:44:00.797Z,-0.80
2018-03-25T00:45:03.339Z,-0.80
2018-03-25T00:46:06.598Z,-0.80
2018-03-25T00:47:09.103Z,-0.80
2018-03-25T00:48:12.453Z,-0.80
2018-03-25T00:49:15.167Z,-0.90
2018-03-25T00:50:19.892Z,-0.80
2018-03-25T00:51:22.362Z,-0.80
2018-03-25T00:52:24.930Z,-0.80
2018-03-25T00:53:27.498Z,-0.80
2018-03-25T00:54:29.984Z,-0.80
2018-03-25T00:55:33.259Z,-0.80
2018-03-25T00:56:35.896Z,-0.80
2018-03-25T00:57:38.907Z,-0.80
2018-03-25T00:58:41.377Z,-0.80
2018-03-25T00:59:43.891Z,-0.80
2018-03-25T01:00:46.448Z,-0.80
2018-03-25T01:01:48.941Z,-0.80
2018-03-25T01:02:51.424Z,-0.80
2018-03-25T01:03:53.894Z,-0.80
2018-03-25T01:04:56.376Z,-0.80
2018-03-25T01:05:58.851Z,-0.80
2018-03-25T01:07:01.612Z,-0.80
2018-03-25T01:08:04.866Z,-0.80
2018-03-25T01:09:07.346Z,-0.80
2018-03-25T01:10:10.115Z,-0.80
2018-03-25T01:11:12.652Z,-0.80
2018-03-25T01:12:15.168Z,-0.80
2018-03-25T01:13:18.393Z,-0.90
2018-03-25T01:14:21.631Z,-0.90
2018-03-25T01:15:24.891Z,-0.90
2018-03-25T01:16:28.146Z,-0.90
2018-03-25T01:17:30.652Z,-0.90
2018-03-25T01:18:34.645Z,-0.90
2018-03-25T01:19:37.173Z,-0.90
2018-03-25T01:20:39.638Z,-0.90
2018-03-25T01:21:42.873Z,-0.90
2018-03-25T01:22:45.554Z,-0.90
2018-03-25T01:23:48.039Z,-0.90
2018-03-25T01:24:51.322Z,-0.90
2018-03-25T01:25:54.300Z,-0.90
2018-03-25T01:26:56.774Z,-0.90
2018-03-25T01:27:59.307Z,-0.90
2018-03-25T01:29:01.786Z,-0.90
2018-03-25T01:30:04.316Z,-0.90
2018-03-25T01:31:06.784Z,-0.90
2018-03-25T01:32:09.266Z,-0.90
2018-03-25T01:33:11.731Z,-0.90
2018-03-25T01:34:14.219Z,-0.90
2018-03-25T01:35:16.715Z,-1.00
2018-03-25T01:36:19.211Z,-1.00
2018-03-25T01:37:21.681Z,-1.00
2018-03-25T01:38:24.927Z,-1.00
2018-03-25T01:39:27.419Z,-1.00
2018-03-25T01:40:29.932Z,-1.00
2018-03-25T01:41:32.455Z,-1.00
2018-03-25T01:42:34.926Z,-1.00
2018-03-25T01:43:37.395Z,-1.00
2018-03-25T01:44:40.206Z,-1.00
2018-03-25T01:45:43.451Z,-0.90
2018-03-25T01:46:46.720Z,-1.00
2018-03-25T01:47:49.202Z,-1.00
2018-03-25T01:48:51.764Z,-1.00
2018-03-25T01:49:54.274Z,-1.00
2018-03-25T01:50:57.238Z,-1.00
2018-03-25T01:51:59.716Z,-1.00
2018-03-25T01:53:02.230Z,-1.00
2018-03-25T01:54:04.795Z,-1.00
2018-03-25T01:55:08.058Z,-1.00
2018-03-25T01:56:11.052Z,-1.00
2018-03-25T01:57:13.516Z,-1.00
2018-03-25T01:58:16.755Z,-1.00
2018-03-25T01:59:19.270Z,-1.00
2018-03-25T02:00:22.507Z,-1.00
2018-03-25T02:01:25.875Z,-1.00
2018-03-25T02:02:28.351Z,-1.10
2018-03-25T02:03:30.810Z,-1.00
2018-03-25T02:04:33.362Z,-1.00
2018-03-25T02:05:35.843Z,-1.00
2018-03-25T02:06:39.159Z,-1.00
2018-03-25T02:07:43.163Z,-1.00
2018-03-25T02:08:45.653Z,-1.00
2018-03-25T02:09:48.224Z,-1.00
2018-03-25T02:10:50.719Z,-1.00
2018-03-25T02:11:53.984Z,-1.00
2018-03-25T02:12:56.938Z,-1.10
2018-03-25T02:14:00.226Z,-1.10
2018-03-25T02:15:02.709Z,-1.10
2018-03-25T02:16:05.239Z,-1.00
2018-03-25T02:17:07.747Z,-1.10
2018-03-25T02:18:10.220Z,-1.10
2018-03-25T02:19:13.540Z,-1.10
2018-03-25T02:20:15.997Z,-1.10
2018-03-25T02:21:18.488Z,-1.10
2018-03-25T02:22:21.085Z,-1.00
2018-03-25T02:23:23.554Z,-1.00
2018-03-25T02:24:26.012Z,-1.00
2018-03-25T02:25:29.249Z,-1.10
2018-03-25T02:26:31.814Z,-1.10
2018-03-25T02:27:34.334Z,-1.10
2018-03-25T02:28:36.808Z,-1.10
2018-03-25T02:29:39.792Z,-1.10
2018-03-25T02:30:42.265Z,-1.10
2018-03-25T02:31:44.738Z,-1.10
2018-03-25T02:32:47.280Z,-1.10
2018-03-25T02:33:49.796Z,-1.10
2018-03-25T02:34:52.298Z,-1.10
2018-03-25T02:35:54.818Z,-1.10
2018-03-25T02:36:57.284Z,-1.10
2018-03-25T02:37:59.779Z,-1.10
2018-03-25T02:39:03.017Z,-1.10
2018-03-25T02:40:06.261Z,-1.10
2018-03-25T02:41:09.495Z,-1.10
2018-03-25T02:42:12.729Z,-1.10
2018-03-25T02:43:15.299Z,-1.10
2018-03-25T02:44:17.799Z,-1.10
2018-03-25T02:45:21.035Z,-1.10
2018-03-25T02:46:24.270Z,-1.20
2018-03-25T02:47:26.818Z,-1.20
2018-03-25T02:48:30.069Z,-1.20
2018-03-25T02:49:32.541Z,-1.20
2018-03-25T02:50:35.028Z,-1.20
2018-03-25T02:51:37.959Z,-1.30
2018-03-25T02:52:40.575Z,-1.30
2018-03-25T02:53:43.807Z,-1.30
2018-03-25T02:54:47.043Z,-1.20
2018-03-25T02:55:50.276Z,-1.20
2018-03-25T02:56:52.740Z,-1.20
2018-03-25T02:57:55.230Z,-1.20
2018-03-25T02:58:58.464Z,-1.20
2018-03-25T03:00:00.922Z,-1.20
2018-03-25T03:01:03.438Z,-1.20
2018-03-25T03:02:06.662Z,-1.10
2018-03-25T03:03:09.911Z,-1.20
2018-03-25T03:04:13.177Z,-1.20
2018-03-25T03:05:15.647Z,-1.20
2018-03-25T03:06:18.246Z,-1.20
2018-03-25T03:07:21.368Z,-1.20
2018-03-25T03:08:23.841Z,-1.20
2018-03-25T03:09:26.318Z,-1.30
2018-03-25T03:10:28.803Z,-1.20
2018-03-25T03:11:32.059Z,-1.20
2018-03-25T03:12:35.297Z,-1.10
2018-03-25T03:13:38.557Z,-1.20
2018-03-25T03:14:41.807Z,-1.20
2018-03-25T03:15:44.300Z,-1.20
2018-03-25T03:16:46.840Z,-1.20
2018-03-25T03:17:49.306Z,-1.20
2018-03-25T03:18:51.783Z,-1.30
2018-03-25T03:19:55.069Z,-1.30
2018-03-25T03:20:57.558Z,-1.30
2018-03-25T03:22:00.117Z,-1.30
2018-03-25T03:23:02.602Z,-1.30
2018-03-25T03:24:05.149Z,-1.30
2018-03-25T03:25:08.381Z,-1.30
2018-03-25T03:26:11.677Z,-1.30
2018-03-25T03:27:14.892Z,-1.30
2018-03-25T03:28:17.486Z,-1.30
2018-03-25T03:29:19.887Z,-1.30
2018-03-25T03:30:22.403Z,-1.30
2018-03-25T03:31:25.237Z,-1.40
2018-03-25T03:32:27.807Z,-1.30
2018-03-25T03:33:30.395Z,-1.30
2018-03-25T03:34:32.970Z,-1.30
2018-03-25T03:35:36.293Z,-1.30
2018-03-25T03:36:39.534Z,-1.30
2018-03-25T03:37:42.440Z,-1.30
2018-03-25T03:38:44.908Z,-1.30
2018-03-25T03:39:48.264Z,-1.20
2018-03-25T03:40:50.792Z,-1.30
2018-03-25T03:41:54.019Z,-1.30
2018-03-25T03:42:57.273Z,-1.30
2018-03-25T03:44:00.504Z,-1.30
2018-03-25T03:45:03.768Z,-1.30
2018-03-25T03:46:06.264Z,-1.30
2018-03-25T03:47:08.761Z,-1.30
2018-03-25T03:48:11.238Z,-1.20
2018-03-25T03:49:13.721Z,-1.20
2018-03-25T03:50:16.205Z,-1.30
2018-03-25T03:51:18.688Z,-1.20
2018-03-25T03:52:21.174Z,-1.30
2018-03-25T03:53:23.843Z,-1.30
2018-03-25T03:54:26.490Z,-1.30
2018-03-25T03:55:29.301Z,-1.20
2018-03-25T03:56:32.568Z,-1.20
2018-03-25T03:57:35.325Z,-1.20
2018-03-25T03:58:37.828Z,-1.20
2018-03-25T03:59:40.304Z,-1.20
2018-03-25T04:00:42.979Z,-1.20
2018-03-25T04:01:45.480Z,-1.30
2018-03-25T04:02:48.457Z,-1.30
2018-03-25T04:03:51.739Z,-1.30
2018-03-25T04:04:54.218Z,-1.30
2018-03-25T04:05:56.765Z,-1.30
2018-03-25T04:06:59.244Z,-1.30
2018-03-25T04:08:02.553Z,-1.30
2018-03-25T04:09:05.088Z,-1.40
2018-03-25T04:10:07.555Z,-1.40
2018-03-25T04:11:10.031Z,-1.40
2018-03-25T04:12:12.919Z,-1.30
2018-03-25T04:13:15.408Z,-1.30
2018-03-25T04:14:17.889Z,-1.30
2018-03-25T04:15:20.349Z,-1.40
2018-03-25T04:16:22.845Z,-1.40
2018-03-25T04:17:25.313Z,-1.40
2018-03-25T04:18:28.550Z,-1.50
2018-03-25T04:19:31.085Z,-1.50
2018-03-25T04:20:34.348Z,-1.50
2018-03-25T04:21:37.753Z,-1.50
2018-03-25T04:22:41.096Z,-1.50
2018-03-25T04:23:43.597Z,-1.60
2018-03-25T04:24:46.071Z,-1.60
2018-03-25T04:25:49.288Z,-1.60
2018-03-25T04:26:52.538Z,-1.60
2018-03-25T04:27:55.023Z,-1.60
2018-03-25T04:28:57.515Z,-1.50
2018-03-25T04:30:00.747Z,-1.50
2018-03-25T04:31:03.990Z,-1.60
2018-03-25T04:32:07.237Z,-1.60
2018-03-25T04:33:09.768Z,-1.60
2018-03-25T04:34:13.033Z,-1.60
2018-03-25T04:35:16.333Z,-1.60
2018-03-25T04:36:18.797Z,-1.60
2018-03-25T04:37:21.340Z,-1.60
2018-03-25T04:38:23.827Z,-1.60
2018-03-25T04:39:27.055Z,-1.60
2018-03-25T04:40:29.551Z,-1.60
2018-03-25T04:41:32.063Z,-1.60
2018-03-25T04:42:34.530Z,-1.60
2018-03-25T04:43:37.797Z,-1.60
2018-03-25T04:44:40.835Z,-1.70
2018-03-25T04:45:44.075Z,-1.60
2018-03-25T04:46:47.325Z,-1.70
2018-03-25T04:47:49.814Z,-1.70
2018-03-25T04:48:52.286Z,-1.70
2018-03-25T04:49:54.792Z,-1.70
2018-03-25T04:50:58.049Z,-1.70
2018-03-25T04:52:00.549Z,-1.70
2018-03-25T04:53:03.803Z,-1.60
2018-03-25T04:54:07.057Z,-1.70
2018-03-25T04:55:09.564Z,-1.70
2018-03-25T04:56:12.825Z,-1.70
2018-03-25T04:57:15.311Z,-1.70
2018-03-25T04:58:17.775Z,-1.70
2018-03-25T04:59:20.331Z,-1.70
2018-03-25T05:00:22.918Z,-1.70
2018-03-25T05:01:26.150Z,-1.70
2018-03-25T05:02:29.402Z,-1.70
2018-03-25T05:03:31.927Z,-1.70
2018-03-25T05:04:35.185Z,-1.70
2018-03-25T05:05:38.393Z,-1.70
2018-03-25T05:06:41.659Z,-1.70
2018-03-25T05:07:44.201Z,-1.70
2018-03-25T05:08:46.691Z,-1.70
2018-03-25T05:09:49.933Z,-1.70
2018-03-25T05:10:52.517Z,-1.70
2018-03-25T05:11:55.029Z,-1.70
2018-03-25T05:12:57.505Z,-1.60
2018-03-25T05:13:59.978Z,-1.60
2018-03-25T05:15:02.584Z,-1.60
2018-03-25T05:16:05.156Z,-1.60
2018-03-25T05:17:07.651Z,-1.60
2018-03-25T05:18:10.131Z,-1.60
2018-03-25T05:19:12.618Z,-1.60
2018-03-25T05:20:15.111Z,-1.60
2018-03-25T05:21:17.626Z,-1.60
2018-03-25T05:22:20.889Z,-1.50
2018-03-25T05:23:23.371Z,-1.50
2018-03-25T05:24:25.839Z,-1.50
2018-03-25T05:25:28.322Z,-1.50
2018-03-25T05:26:30.897Z,-1.50
2018-03-25T05:27:33.391Z,-1.50
2018-03-25T05:28:36.635Z,-1.40
2018-03-25T05:29:39.884Z,-1.40
2018-03-25T05:30:43.114Z,-1.40
2018-03-25T05:31:46.358Z,-1.30
2018-03-25T05:32:49.635Z,-1.30
2018-03-25T05:33:52.117Z,-1.30
2018-03-25T05:34:54.588Z,-1.30
2018-03-25T05:35:57.044Z,-1.30
2018-03-25T05:36:59.499Z,-1.30
2018-03-25T05:38:02.757Z,-1.30
2018-03-25T05:39:05.251Z,-1.30
2018-03-25T05:40:07.717Z,-1.30
2018-03-25T05:41:11.003Z,-1.30
2018-03-25T05:42:13.462Z,-1.30
2018-03-25T05:43:16.738Z,-1.30
2018-03-25T05:44:19.210Z,-1.30
2018-03-25T05:45:21.689Z,-1.20
2018-03-25T05:46:24.204Z,-1.20
2018-03-25T05:47:26.705Z,-1.20
2018-03-25T05:48:30.065Z,-1.10
2018-03-25T05:49:32.599Z,-1.10
2018-03-25T05:50:35.112Z,-1.10
2018-03-25T05:51:38.336Z,-1.00
2018-03-25T05:52:41.572Z,-1.00
2018-03-25T05:53:44.150Z,-1.00
2018-03-25T05:54:46.656Z,-0.90
2018-03-25T05:55:49.154Z,-0.90
2018-03-25T05:56:52.411Z,-0.80
2018-03-25T05:57:55.645Z,-0.80
2018-03-25T05:58:58.920Z,-0.70
2018-03-25T06:00:01.388Z,-0.70
2018-03-25T06:01:03.850Z,-0.70
2018-03-25T06:02:07.100Z,-0.60
2018-03-25T06:03:09.584Z,-0.60
2018-03-25T06:04:12.092Z,-0.60
2018-03-25T06:05:14.573Z,-0.50
2018-03-25T06:06:17.054Z,-0.50
2018-03-25T06:07:19.639Z,-0.50
2018-03-25T06:08:22.126Z,-0.50
2018-03-25T06:09:24.607Z,-0.50
2018-03-25T06:10:27.074Z,-0.40
2018-03-25T06:11:30.315Z,-0.40
2018-03-25T06:12:33.588Z,-0.40
2018-03-25T06:13:36.072Z,-0.40
2018-03-25T06:14:38.528Z,-0.40
2018-03-25T06:15:41.792Z,-0.40
2018-03-25T06:16:44.284Z,-0.40
2018-03-25T06:17:47.547Z,-0.30
2018-03-25T06:18:50.028Z,-0.40
2018-03-25T06:19:53.267Z,-0.30
2018-03-25T06:20:55.765Z,-0.30
2018-03-25T06:21:58.331Z,-0.30
2018-03-25T06:23:00.804Z,-0.30
2018-03-25T06:24:03.300Z,-0.20
2018-03-25T06:25:06.554Z,-0.20
2018-03-25T06:26:09.790Z,-0.10
2018-03-25T06:27:13.056Z,0.00
2018-03-25T06:28:16.278Z,0.00
2018-03-25T06:29:18.753Z,0.00
2018-03-25T06:30:21.342Z,0.00
2018-03-25T06:31:23.806Z,0.10
2018-03-25T06:32:26.381Z,0.20
2018-03-25T06:33:29.613Z,0.50
2018-03-25T06:34:32.855Z,0.70
2018-03-25T06:35:36.110Z,0.90
2018-03-25T06:36:38.603Z,0.90
2018-03-25T06:37:41.080Z,1.10
2018-03-25T06:38:43.559Z,1.30
2018-03-25T06:39:46.025Z,1.40
2018-03-25T06:40:48.498Z,1.60
2018-03-25T06:41:50.962Z,1.80
2018-03-25T06:42:53.436Z,2.00
2018-03-25T06:43:55.920Z,2.20
2018-03-25T06:44:59.246Z,2.40
2018-03-25T06:46:01.680Z,2.60
2018-03-25T06:47:04.150Z,2.70
2018-03-25T06:48:06.605Z,2.80
2018-03-25T06:49:09.847Z,3.00
2018-03-25T06:50:13.189Z,3.20
2018-03-25T06:51:15.656Z,3.20
2018-03-25T06:52:18.246Z,3.30
2018-03-25T06:53:21.491Z,3.20
2018-03-25T06:54:24.731Z,3.30
2018-03-25T06:55:27.996Z,3.40
2018-03-25T06:56:30.474Z,3.40
2018-03-25T06:57:32.954Z,3.50
2018-03-25T06:58:35.435Z,3.70
2018-03-25T06:59:37.923Z,3.90
2018-03-25T07:00:40.419Z,4.10
2018-03-25T07:01:42.885Z,4.30
2018-03-25T07:02:45.378Z,4.40
2018-03-25T07:03:47.881Z,4.50
2018-03-25T07:04:51.110Z,4.70
2018-03-25T07:05:53.653Z,4.70
2018-03-25T07:06:56.953Z,4.70
2018-03-25T07:07:59.418Z,4.70
2018-03-25T07:09:02.657Z,4.90
2018-03-25T07:10:05.892Z,5.00
2018-03-25T07:11:08.399Z,5.00
2018-03-25T07:12:11.782Z,5.20
2018-03-25T07:13:15.004Z,5.30
2018-03-25T07:14:17.487Z,5.30
2018-03-25T07:15:19.967Z,5.40
2018-03-25T07:16:23.250Z,5.30
2018-03-25T07:17:25.751Z,5.30
2018-03-25T07:18:28.230Z,5.40
2018-03-25T07:19:30.686Z,5.50
2018-03-25T07:20:33.934Z,5.70
2018-03-25T07:21:37.206Z,5.80
2018-03-25T07:22:39.707Z,5.80
2018-03-25T07:23:42.180Z,6.00
2018-03-25T07:24:44.661Z,6.20
2018-03-25T07:25:47.146Z,6.40
2018-03-25T07:26:49.629Z,6.60
2018-03-25T07:27:52.096Z,6.60
2018-03-25T07:28:54.583Z,6.80
2018-03-25T07:29:57.164Z,7.00
2018-03-25T07:30:59.643Z,7.00
2018-03-25T07:32:02.114Z,7.10
2018-03-25T07:33:05.349Z,7.50
2018-03-25T07:34:07.848Z,7.50
2018-03-25T07:35:10.316Z,7.70
2018-03-25T07:36:13.587Z,8.00
2018-03-25T07:37:16.051Z,8.00
2018-03-25T07:38:20.103Z,8.30
2018-03-25T07:39:22.558Z,8.30
2018-03-25T07:40:26.120Z,8.40
2018-03-25T07:41:29.390Z,8.60
2018-03-25T07:42:31.892Z,8.60
2018-03-25T07:43:35.153Z,8.80
2018-03-25T07:44:37.802Z,8.80
2018-03-25T07:45:40.311Z,8.70
2018-03-25T07:46:42.795Z,8.70
2018-03-25T07:47:46.075Z,8.90
2018-03-25T07:48:48.565Z,9.00
2018-03-25T07:49:51.812Z,9.10
2018-03-25T07:50:54.325Z,9.10
2018-03-25T07:51:56.803Z,9.10
2018-03-25T07:52:59.404Z,8.90
2018-03-25T07:54:01.878Z,8.80
2018-03-25T07:55:04.347Z,8.60
2018-03-25T07:56:07.592Z,8.20
2018-03-25T07:57:10.868Z,8.20
2018-03-25T07:58:13.391Z,8.20
2018-03-25T07:59:15.914Z,8.20
2018-03-25T08:00:18.394Z,8.30
2018-03-25T08:01:21.652Z,8.30
2018-03-25T08:02:24.879Z,8.10
2018-03-25T08:03:28.153Z,8.20
2018-03-25T08:04:30.658Z,8.20
2018-03-25T08:05:33.907Z,8.50
2018-03-25T08:06:37.138Z,8.50
2018-03-25T08:07:40.384Z,8.40
2018-03-25T08:08:43.624Z,8.60
2018-03-25T08:09:46.891Z,8.60
2018-03-25T08:10:49.375Z,8.60
2018-03-25T08:11:51.937Z,8.60
2018-03-25T08:12:54.460Z,8.70
2018-03-25T08:13:56.924Z,9.00
2018-03-25T08:14:59.409Z,9.00
2018-03-25T08:16:01.950Z,9.10
2018-03-25T08:17:04.479Z,9.50
2018-03-25T08:18:07.744Z,9.90
2018-03-25T08:19:10.231Z,10.00
2018-03-25T08:20:12.736Z,10.10
2018-03-25T08:21:15.987Z,10.50
2018-03-25T08:22:19.240Z,10.60
2018-03-25T08:23:22.267Z,10.60
2018-03-25T08:24:25.547Z,10.70
2018-03-25T08:25:28.077Z,10.70
2018-03-25T08:26:30.575Z,10.90
2018-03-25T08:27:33.103Z,10.80
2018-03-25T08:28:35.576Z,11.00
2018-03-25T08:29:38.106Z,11.20
2018-03-25T08:30:40.582Z,11.20
2018-03-25T08:31:43.154Z,11.00
2018-03-25T08:32:45.746Z,11.20
2018-03-25T08:33:48.385Z,11.30
2018-03-25T08:34:50.838Z,11.50
2018-03-25T08:35:53.528Z,11.60
2018-03-25T08:36:56.024Z,11.60
2018-03-25T08:37:59.292Z,11.70
2018-03-25T08:39:01.798Z,11.60
2018-03-25T08:40:05.051Z,11.90
2018-03-25T08:41:07.568Z,11.90
2018-03-25T08:42:10.861Z,12.00
2018-03-25T08:43:13.365Z,12.00
2018-03-25T08:44:15.854Z,11.90
2018-03-25T08:45:19.159Z,12.00
2018-03-25T08:46:21.631Z,12.00
2018-03-25T08:47:24.134Z,11.80
2018-03-25T08:48:26.618Z,11.50
2018-03-25T08:49:29.115Z,11.50
2018-03-25T08:50:31.584Z,11.40
2018-03-25T08:51:34.083Z,11.40
2018-03-25T08:52:36.583Z,11.00
2018-03-25T08:53:39.064Z,10.80
2018-03-25T08:54:41.550Z,10.70
2018-03-25T08:55:44.083Z,10.50
2018-03-25T08:56:46.619Z,10.40
2018-03-25T08:57:49.514Z,10.30
2018-03-25T08:58:52.784Z,10.30
2018-03-25T08:59:55.254Z,10.30
2018-03-25T09:00:57.709Z,10.10
2018-03-25T09:02:00.239Z,10.00
2018-03-25T09:03:03.491Z,9.90
2018-03-25T09:04:06.022Z,9.80
2018-03-25T09:05:08.531Z,9.80
2018-03-25T09:06:11.055Z,9.70
2018-03-25T09:07:13.538Z,9.60
2018-03-25T09:08:16.042Z,9.60
2018-03-25T09:09:18.538Z,9.60
2018-03-25T09:10:21.034Z,9.40
2018-03-25T09:11:24.315Z,9.00
2018-03-25T09:12:26.918Z,9.00
2018-03-25T09:13:29.407Z,8.90
2018-03-25T09:14:31.871Z,8.90
2018-03-25T09:15:34.840Z,8.90
2018-03-25T09:16:37.338Z,9.10
2018-03-25T09:17:40.580Z,9.10
2018-03-25T09:18:43.059Z,9.10
2018-03-25T09:19:45.642Z,9.10
2018-03-25T09:20:48.181Z,9.10
2018-03-25T09:21:50.644Z,9.00
2018-03-25T09:22:54.429Z,8.90
2018-03-25T09:23:56.971Z,8.80
2018-03-25T09:24:59.476Z,8.90
2018-03-25T09:26:02.759Z,9.00
2018-03-25T09:27:05.249Z,9.00
2018-03-25T09:28:08.481Z,8.90
2018-03-25T09:29:11.176Z,8.90
2018-03-25T09:30:13.671Z,8.80
2018-03-25T09:31:16.293Z,8.90
2018-03-25T09:32:18.777Z,9.00
2018-03-25T09:33:21.252Z,9.00
2018-03-25T09:34:23.742Z,9.00
2018-03-25T09:35:27.005Z,9.00
2018-03-25T09:36:29.536Z,9.00
2018-03-25T09:37:32.124Z,9.00
2018-03-25T09:38:34.699Z,9.10
2018-03-25T09:39:37.161Z,9.10
2018-03-25T09:40:39.634Z,9.00
2018-03-25T09:41:42.142Z,9.00
2018-03-25T09:42:45.417Z,9.00
2018-03-25T09:43:47.905Z,9.00
2018-03-25T09:44:51.156Z,9.00
2018-03-25T09:45:54.423Z,9.00
2018-03-25T09:46:56.922Z,8.90
2018-03-25T09:48:00.204Z,8.80
2018-03-25T09:49:02.762Z,8.80
2018-03-25T09:50:06.038Z,8.90
2018-03-25T09:51:09.327Z,8.90
2018-03-25T09:52:11.879Z,8.80
2018-03-25T09:53:14.786Z,8.90
2018-03-25T09:54:17.281Z,8.90
2018-03-25T09:55:19.779Z,9.00
2018-03-25T09:56:23.084Z,9.10
2018-03-25T09:57:25.560Z,9.10
2018-03-25T09:58:28.822Z,9.10
2018-03-25T09:59:31.333Z,9.10
2018-03-25T10:00:36.417Z,9.00
2018-03-25T10:03:31.123Z,9.00
2018-03-25T10:04:33.646Z,9.10
2018-03-25T10:05:36.169Z,9.10
2018-03-25T10:06:38.683Z,9.10
2018-03-25T10:07:41.288Z,9.10
2018-03-25T10:08:44.608Z,9.10
2018-03-25T10:09:47.696Z,9.10
2018-03-25T10:10:50.994Z,9.10
2018-03-25T10:11:53.576Z,9.10
2018-03-25T10:12:56.126Z,9.10
2018-03-25T10:13:58.618Z,9.10
2018-03-25T10:15:01.127Z,9.10
2018-03-25T10:16:04.425Z,9.00
2018-03-25T10:17:07.017Z,9.00
2018-03-25T10:18:09.568Z,9.10
2018-03-25T10:19:12.023Z,9.10
2018-03-25T10:20:14.620Z,9.10
2018-03-25T10:21:17.095Z,9.20
2018-03-25T10:22:19.625Z,9.10
2018-03-25T10:23:22.878Z,9.20
2018-03-25T10:24:26.131Z,9.20
2018-03-25T10:25:29.372Z,9.20
2018-03-25T10:26:31.838Z,9.30
2018-03-25T10:27:34.456Z,9.30
2018-03-25T10:28:36.936Z,9.30
2018-03-25T10:29:40.157Z,9.20
2018-03-25T10:30:42.715Z,9.20
2018-03-25T10:31:45.959Z,9.30
2018-03-25T10:32:48.455Z,9.30
2018-03-25T10:33:50.936Z,9.20
2018-03-25T10:34:53.395Z,9.20
2018-03-25T10:35:55.860Z,9.20
2018-03-25T10:36:58.336Z,9.20
2018-03-25T10:38:00.823Z,9.10
2018-03-25T10:39:03.403Z,9.00
2018-03-25T10:40:05.916Z,9.00
2018-03-25T10:41:08.378Z,9.10
2018-03-25T10:42:11.601Z,9.10
2018-03-25T10:43:14.103Z,9.10
2018-03-25T10:44:16.598Z,9.10
2018-03-25T10:45:19.082Z,9.10
2018-03-25T10:46:22.318Z,9.10
2018-03-25T10:47:24.842Z,9.10
2018-03-25T10:48:27.410Z,9.20
2018-03-25T10:49:29.918Z,9.20
2018-03-25T10:50:32.406Z,9.20
2018-03-25T10:51:34.883Z,9.20
2018-03-25T10:52:37.876Z,9.20
2018-03-25T10:53:40.371Z,9.30
2018-03-25T10:54:43.028Z,9.40
2018-03-25T10:55:50.393Z,9.50
2018-03-25T10:56:52.933Z,9.50
2018-03-25T10:57:55.427Z,9.50
2018-03-25T10:58:57.989Z,9.60
2018-03-25T11:00:00.565Z,9.60
2018-03-25T11:01:03.033Z,9.60
2018-03-25T11:02:05.532Z,9.60
2018-03-25T11:03:10.008Z,9.50
2018-03-25T11:04:13.323Z,9.50
2018-03-25T11:05:15.973Z,9.50
2018-03-25T11:06:18.466Z,9.50
2018-03-25T11:07:20.978Z,9.50
2018-03-25T11:08:24.048Z,9.50
2018-03-25T11:10:42.086Z,9.40
2018-03-25T11:11:44.568Z,9.40
2018-03-25T11:12:47.070Z,9.30
2018-03-25T11:13:50.316Z,9.40
2018-03-25T11:14:53.604Z,9.40
2018-03-25T11:15:56.327Z,9.40
2018-03-25T11:16:58.805Z,9.40
2018-03-25T11:18:02.064Z,9.50
2018-03-25T11:19:05.307Z,9.60
2018-03-25T11:20:07.807Z,9.60
2018-03-25T11:21:10.291Z,9.60
2018-03-25T11:22:12.767Z,9.70
2018-03-25T11:23:16.018Z,9.70
2018-03-25T11:24:19.290Z,9.80
2018-03-25T11:25:21.810Z,9.80
2018-03-25T11:26:24.346Z,9.80
2018-03-25T11:27:26.856Z,9.80
2018-03-25T11:28:29.347Z,9.70
2018-03-25T11:29:31.906Z,9.70
2018-03-25T11:30:35.061Z,9.70
2018-03-25T11:31:37.621Z,9.80
2018-03-25T11:32:40.219Z,9.70
2018-03-25T11:33:42.704Z,9.70
2018-03-25T11:34:45.950Z,9.70
2018-03-25T11:35:49.183Z,9.80
2018-03-25T11:36:51.763Z,9.80
2018-03-25T11:37:54.234Z,9.80
2018-03-25T11:38:57.475Z,9.90
2018-03-25T11:39:59.927Z,9.90
2018-03-25T11:41:02.400Z,9.90
2018-03-25T11:42:04.995Z,10.00
2018-03-25T11:43:07.471Z,10.00
2018-03-25T11:44:10.046Z,9.90
2018-03-25T11:45:12.537Z,9.90
2018-03-25T11:46:15.802Z,10.00
2018-03-25T11:47:18.257Z,10.00
2018-03-25T11:48:20.931Z,10.10
2018-03-25T11:49:24.207Z,10.20
2018-03-25T11:50:26.720Z,10.10
2018-03-25T11:51:29.223Z,10.10
2018-03-25T11:52:31.695Z,10.20
2018-03-25T11:53:34.206Z,10.20
2018-03-25T11:54:36.707Z,10.20
2018-03-25T11:55:39.997Z,10.30
2018-03-25T11:56:42.486Z,10.30
2018-03-25T11:57:45.023Z,10.30
2018-03-25T11:58:47.630Z,10.30
2018-03-25T11:59:50.935Z,10.30
2018-03-25T12:00:53.476Z,10.40
2018-03-25T12:01:56.073Z,10.40
2018-03-25T12:02:58.550Z,10.50
2018-03-25T12:04:01.060Z,10.50
2018-03-25T12:05:03.569Z,10.40
2018-03-25T12:06:06.177Z,10.40
2018-03-25T12:07:08.671Z,10.40
2018-03-25T12:08:11.206Z,10.50
2018-03-25T12:09:13.702Z,10.50
2018-03-25T12:10:17.034Z,10.60
2018-03-25T12:11:20.302Z,10.60
2018-03-25T12:12:23.578Z,10.60
2018-03-25T12:13:26.099Z,10.60
2018-03-25T12:14:28.606Z,10.70
2018-03-25T12:15:31.070Z,10.70
2018-03-25T12:16:33.554Z,10.70
2018-03-25T12:17:36.064Z,10.70
2018-03-25T12:18:39.325Z,10.60
2018-03-25T12:19:41.819Z,10.60
2018-03-25T12:20:44.284Z,10.60
2018-03-25T12:21:46.756Z,10.60
2018-03-25T12:22:49.223Z,10.60
2018-03-25T12:23:51.767Z,10.60
2018-03-25T12:24:54.809Z,10.60
2018-03-25T12:25:57.289Z,10.50
2018-03-25T12:27:00.533Z,10.50
2018-03-25T12:28:03.791Z,10.40
2018-03-25T12:29:07.059Z,10.40
2018-03-25T12:30:09.563Z,10.40
2018-03-25T12:31:12.104Z,10.40
2018-03-25T12:32:14.566Z,10.40
2018-03-25T12:33:17.170Z,10.40
2018-03-25T12:34:20.399Z,10.40
2018-03-25T12:35:22.952Z,10.40
2018-03-25T12:36:25.455Z,10.50
2018-03-25T12:37:27.958Z,10.50
2018-03-25T12:38:30.413Z,10.60
2018-03-25T12:39:32.895Z,10.60
2018-03-25T12:40:35.401Z,10.50
2018-03-25T12:41:37.938Z,10.50
2018-03-25T12:42:41.191Z,10.60
2018-03-25T12:43:44.427Z,10.60
2018-03-25T12:44:47.721Z,10.60
2018-03-25T12:45:50.179Z,10.60
2018-03-25T12:46:52.786Z,10.70
2018-03-25T12:47:55.268Z,10.70
2018-03-25T12:48:57.787Z,10.60
2018-03-25T12:50:01.065Z,10.50
2018-03-25T12:51:03.538Z,10.50
2018-03-25T12:52:06.787Z,10.50
2018-03-25T12:53:10.352Z,10.50
2018-03-25T12:54:13.262Z,10.50
2018-03-25T12:55:16.772Z,10.60
2018-03-25T12:56:19.251Z,10.50
2018-03-25T12:57:21.789Z,10.60
2018-03-25T12:58:24.333Z,10.60
2018-03-25T12:59:26.813Z,10.70
2018-03-25T13:00:29.409Z,10.70
2018-03-25T13:01:31.990Z,10.70
2018-03-25T13:02:34.519Z,10.60
2018-03-25T13:03:37.007Z,10.70
2018-03-25T13:04:39.470Z,10.80
2018-03-25T13:05:41.937Z,10.80
2018-03-25T13:06:44.535Z,10.90
2018-03-25T13:07:46.990Z,10.90
2018-03-25T13:08:49.464Z,10.90
2018-03-25T13:09:52.790Z,11.00
2018-03-25T13:10:55.375Z,11.00
2018-03-25T13:12:00.319Z,11.10
2018-03-25T13:13:03.757Z,11.10
2018-03-25T13:14:06.301Z,11.10
2018-03-25T13:15:08.872Z,11.10
2018-03-25T13:16:11.380Z,11.20
2018-03-25T13:17:13.884Z,11.20
2018-03-25T13:18:16.375Z,11.20
2018-03-25T13:19:18.920Z,11.20
2018-03-25T13:20:22.171Z,11.20
2018-03-25T13:21:24.852Z,11.20
2018-03-25T13:22:27.514Z,11.20
2018-03-25T13:23:30.164Z,11.20
2018-03-25T13:24:32.688Z,11.10
2018-03-25T13:25:35.208Z,11.10
2018-03-25T13:26:37.801Z,11.10
2018-03-25T13:27:40.374Z,11.20
2018-03-25T13:28:42.890Z,11.20
2018-03-25T13:29:45.448Z,11.20
2018-03-25T13:30:47.942Z,11.20
2018-03-25T13:31:50.415Z,11.20
2018-03-25T13:32:52.897Z,11.30
2018-03-25T13:33:55.361Z,11.20
2018-03-25T13:34:57.838Z,11.20
2018-03-25T13:36:00.335Z,11.20
2018-03-25T13:37:02.811Z,11.30
2018-03-25T13:38:05.292Z,11.30
2018-03-25T13:39:08.558Z,11.30
2018-03-25T13:40:11.068Z,11.30